createdAt,value
2023-05-17T00:01:56.833Z,12.70
2023-05-17T00:04:23.912Z,12.70
2023-05-17T00:06:50.958Z,12.70
2023-05-17T00:09:18.041Z,12.80
2023-05-17T00:11:45.900Z,12.50
2023-05-17T00:14:13.034Z,12.50
2023-05-17T00:16:40.063Z,12.50
2023-05-17T00:19:07.371Z,12.60
2023-05-17T00:21:35.150Z,12.60
2023-05-17T00:24:02.527Z,12.70
2023-05-17T00:26:29.617Z,12.60
2023-05-17T00:28:56.639Z,12.60
2023-05-17T00:31:23.628Z,12.50
2023-05-17T00:33:50.913Z,12.50
2023-05-17T00:36:17.843Z,12.50
2023-05-17T00:38:44.908Z,12.40
2023-05-17T00:41:13.142Z,12.30
2023-05-17T00:43:40.193Z,12.40
2023-05-17T00:46:07.203Z,12.50
2023-05-17T00:48:34.379Z,12.30
2023-05-17T00:51:01.636Z,12.30
2023-05-17T00:53:29.728Z,12.40
2023-05-17T00:55:57.087Z,12.20
2023-05-17T00:58:24.597Z,12.00
2023-05-17T01:00:51.762Z,12.10
2023-05-17T01:03:18.858Z,11.90
2023-05-17T01:05:45.760Z,12.00
2023-05-17T01:08:12.563Z,12.00
2023-05-17T01:10:48.419Z,11.90
2023-05-17T01:13:22.888Z,11.90
2023-05-17T01:15:59.483Z,11.80
2023-05-17T01:18:48.949Z,11.80
2023-05-17T01:21:42.925Z,11.70
2023-05-17T01:24:34.891Z,11.80
2023-05-17T01:27:05.004Z,11.50
2023-05-17T01:29:33.148Z,11.50
2023-05-17T01:32:03.210Z,11.50
2023-05-17T01:34:30.556Z,11.50
2023-05-17T01:36:58.351Z,11.60
2023-05-17T01:39:25.692Z,11.70
2023-05-17T01:42:04.127Z,11.50
2023-05-17T01:44:56.872Z,11.50
2023-05-17T01:48:09.763Z,11.40
2023-05-17T01:50:40.243Z,11.50
2023-05-17T01:53:24.633Z,11.40
2023-05-17T01:55:57.357Z,11.40
2023-05-17T01:58:26.557Z,11.30
2023-05-17T02:00:56.402Z,11.10
2023-05-17T02:03:23.686Z,11.30
2023-05-17T02:05:50.806Z,11.50
2023-05-17T02:08:18.400Z,11.30
2023-05-17T02:10:45.443Z,11.10
2023-05-17T02:13:13.145Z,11.10
2023-05-17T02:15:40.123Z,11.00
2023-05-17T02:18:07.105Z,11.10
2023-05-17T02:20:34.424Z,10.90
2023-05-17T02:23:01.540Z,10.90
2023-05-17T02:25:29.065Z,11.00
2023-05-17T02:27:56.353Z,11.20
2023-05-17T02:30:23.421Z,11.10
2023-05-17T02:32:52.335Z,11.10
2023-05-17T02:35:19.610Z,11.10
2023-05-17T02:37:46.792Z,11.10
2023-05-17T02:40:14.292Z,11.10
2023-05-17T02:42:41.525Z,11.00
2023-05-17T02:45:08.789Z,10.90
2023-05-17T02:47:35.843Z,10.90
2023-05-17T02:50:02.903Z,10.80
2023-05-17T02:52:30.115Z,10.80
2023-05-17T02:54:57.089Z,10.70
2023-05-17T02:57:23.991Z,10.70
2023-05-17T02:59:53.421Z,10.70
2023-05-17T03:02:20.764Z,10.80
2023-05-17T03:04:47.960Z,10.90
2023-05-17T03:07:14.947Z,10.80
2023-05-17T03:09:42.946Z,10.90
2023-05-17T03:12:10.516Z,10.80
2023-05-17T03:14:37.462Z,10.70
2023-05-17T03:17:04.578Z,10.70
2023-05-17T03:19:31.686Z,10.70
2023-05-17T03:21:58.678Z,10.80
2023-05-17T03:24:25.952Z,10.70
2023-05-17T03:26:52.882Z,10.50
2023-05-17T03:29:19.841Z,10.60
2023-05-17T03:31:46.786Z,10.60
2023-05-17T03:34:13.759Z,10.70
2023-05-17T03:36:40.801Z,10.70
2023-05-17T03:39:08.066Z,10.70
2023-05-17T03:41:35.114Z,10.60
2023-05-17T03:44:02.140Z,10.50
2023-05-17T03:46:29.262Z,10.60
2023-05-17T03:48:56.340Z,10.70
2023-05-17T03:51:23.646Z,10.70
2023-05-17T03:53:58.315Z,10.90
2023-05-17T03:56:25.456Z,10.90
2023-05-17T03:58:52.530Z,10.90
2023-05-17T04:01:21.301Z,11.00
2023-05-17T04:03:48.245Z,11.10
2023-05-17T04:06:16.054Z,10.90
2023-05-17T04:08:43.284Z,10.80
2023-05-17T04:11:12.690Z,10.80
2023-05-17T04:13:43.317Z,10.80
2023-05-17T04:16:11.309Z,10.60
2023-05-17T04:18:39.302Z,10.70
2023-05-17T04:21:07.096Z,10.70
2023-05-17T04:23:35.245Z,10.60
2023-05-17T04:26:03.244Z,10.60
2023-05-17T04:28:30.591Z,10.50
2023-05-17T04:30:57.828Z,10.50
2023-05-17T04:33:25.160Z,10.50
2023-05-17T04:35:55.173Z,10.50
2023-05-17T04:38:22.391Z,10.50
2023-05-17T04:40:49.471Z,10.60
2023-05-17T04:43:16.827Z,10.60
2023-05-17T04:45:43.943Z,10.70
2023-05-17T04:48:11.458Z,10.90
2023-05-17T04:50:38.580Z,11.10
2023-05-17T04:53:05.580Z,11.00
2023-05-17T04:55:32.415Z,10.90
2023-05-17T04:57:59.317Z,11.00
2023-05-17T05:00:26.420Z,11.10
2023-05-17T05:02:53.283Z,11.10
2023-05-17T05:05:20.727Z,11.20
2023-05-17T05:07:47.529Z,11.30
2023-05-17T05:10:14.375Z,11.40
2023-05-17T05:12:45.669Z,11.40
2023-05-17T05:15:12.719Z,11.40
2023-05-17T05:17:39.816Z,11.60
2023-05-17T05:20:08.675Z,11.70
2023-05-17T05:22:35.932Z,12.00
2023-05-17T05:25:02.951Z,12.00
2023-05-17T05:27:30.200Z,12.20
2023-05-17T05:29:57.195Z,12.00
2023-05-17T05:32:24.353Z,12.00
2023-05-17T05:34:51.452Z,11.80
2023-05-17T05:37:19.409Z,12.00
2023-05-17T05:39:46.852Z,12.10
2023-05-17T05:42:13.961Z,12.10
2023-05-17T05:44:40.867Z,12.20
2023-05-17T05:47:08.489Z,12.30
2023-05-17T05:49:35.608Z,12.50
2023-05-17T05:52:05.517Z,12.60
2023-05-17T05:54:32.696Z,12.70
2023-05-17T05:57:00.920Z,12.80
2023-05-17T05:59:28.485Z,13.00
2023-05-17T06:01:55.416Z,12.80
2023-05-17T06:04:36.385Z,12.90
2023-05-17T06:07:08.087Z,12.90
2023-05-17T06:09:35.748Z,13.20
2023-05-17T06:12:02.855Z,13.20
2023-05-17T06:14:49.541Z,13.30
2023-05-17T06:17:16.652Z,13.40
2023-05-17T06:19:43.954Z,13.40
2023-05-17T06:22:11.358Z,13.60
2023-05-17T06:24:40.349Z,13.60
2023-05-17T06:27:08.033Z,13.70
2023-05-17T06:29:35.275Z,13.90
2023-05-17T06:32:02.182Z,13.90
2023-05-17T06:34:29.053Z,14.00
2023-05-17T06:36:56.168Z,13.90
2023-05-17T06:39:23.404Z,14.00
2023-05-17T06:41:50.519Z,14.10
2023-05-17T06:44:18.784Z,14.30
2023-05-17T06:46:45.691Z,14.50
2023-05-17T06:49:12.595Z,14.60
2023-05-17T06:51:40.452Z,14.70
2023-05-17T06:54:07.671Z,14.70
2023-05-17T06:56:34.683Z,14.80
2023-05-17T06:59:02.447Z,14.90
2023-05-17T07:01:29.478Z,14.90
2023-05-17T07:03:56.893Z,15.10
2023-05-17T07:06:24.042Z,15.00
2023-05-17T07:08:51.140Z,15.10
2023-05-17T07:11:18.246Z,15.20
2023-05-17T07:13:46.906Z,15.30
2023-05-17T07:16:14.207Z,15.30
2023-05-17T07:18:41.485Z,15.40
2023-05-17T07:21:10.262Z,15.60
2023-05-17T07:23:37.349Z,15.70
2023-05-17T07:26:04.605Z,15.70
2023-05-17T07:28:32.042Z,15.60
2023-05-17T07:30:58.962Z,15.70
2023-05-17T07:33:25.874Z,15.80
2023-05-17T07:35:54.485Z,15.80
2023-05-17T07:38:22.615Z,15.90
2023-05-17T07:40:49.974Z,16.00
2023-05-17T07:43:18.263Z,16.00
2023-05-17T07:45:45.788Z,16.10
2023-05-17T07:48:13.533Z,16.40
2023-05-17T07:50:43.182Z,16.70
2023-05-17T07:53:10.728Z,16.90
2023-05-17T07:55:37.875Z,17.10
2023-05-17T07:58:05.159Z,17.30
2023-05-17T08:00:33.328Z,17.50
2023-05-17T08:03:02.060Z,17.70
2023-05-17T08:05:29.321Z,17.70
2023-05-17T08:08:00.274Z,17.70
2023-05-17T08:10:27.873Z,17.80
2023-05-17T08:12:55.173Z,17.90
2023-05-17T08:15:22.942Z,18.00
2023-05-17T08:17:50.221Z,18.00
2023-05-17T08:20:17.580Z,17.90
2023-05-17T08:22:44.552Z,18.10
2023-05-17T08:25:13.713Z,18.30
2023-05-17T08:27:41.798Z,18.30
2023-05-17T08:30:11.883Z,18.40
2023-05-17T08:32:41.922Z,18.50
2023-05-17T08:35:09.637Z,18.50
2023-05-17T08:37:37.068Z,18.60
2023-05-17T08:40:05.250Z,18.80
2023-05-17T08:42:33.900Z,18.70
2023-05-17T08:45:01.135Z,18.70
2023-05-17T08:47:32.369Z,18.50
2023-05-17T08:50:05.280Z,18.60
2023-05-17T08:52:33.231Z,18.70
2023-05-17T08:55:04.111Z,18.90
2023-05-17T08:57:33.742Z,19.30
2023-05-17T09:00:01.120Z,19.60
2023-05-17T09:02:31.186Z,19.80
2023-05-17T09:04:59.296Z,20.10
2023-05-17T09:07:26.722Z,20.50
2023-05-17T09:09:54.521Z,20.70
2023-05-17T09:12:24.798Z,20.70
2023-05-17T09:14:53.385Z,20.70
2023-05-17T09:17:21.685Z,20.20
2023-05-17T09:19:51.281Z,20.10
2023-05-17T09:22:19.297Z,19.80
2023-05-17T09:24:46.902Z,19.60
2023-05-17T09:27:18.841Z,19.40
2023-05-17T09:29:46.559Z,19.50
2023-05-17T09:32:18.612Z,19.50
2023-05-17T09:34:47.141Z,19.60
2023-05-17T09:37:19.580Z,19.40
2023-05-17T09:39:48.475Z,19.30
2023-05-17T09:42:17.004Z,18.90
2023-05-17T09:45:00.121Z,19.00
2023-05-17T09:47:29.136Z,19.00
2023-05-17T09:50:02.934Z,19.40
2023-05-17T09:52:32.846Z,19.70
2023-05-17T09:55:01.110Z,19.70
2023-05-17T09:57:37.109Z,19.60
2023-05-17T10:00:09.781Z,19.40
2023-05-17T10:02:38.071Z,19.30
2023-05-17T10:05:07.763Z,19.20
2023-05-17T10:07:36.797Z,19.30
2023-05-17T10:10:04.533Z,19.50
2023-05-17T10:12:38.565Z,19.50
2023-05-17T10:15:06.648Z,19.90
2023-05-17T10:17:35.858Z,20.70
2023-05-17T10:20:10.576Z,21.20
2023-05-17T10:22:38.312Z,21.50
2023-05-17T10:25:06.150Z,21.30
2023-05-17T10:27:33.278Z,21.50
2023-05-17T10:30:00.862Z,22.20
2023-05-17T10:32:29.071Z,22.50
2023-05-17T10:35:09.158Z,23.00
2023-05-17T10:37:40.538Z,23.30
2023-05-17T10:40:16.367Z,23.60
2023-05-17T10:42:54.172Z,23.80
2023-05-17T10:45:23.720Z,24.20
2023-05-17T10:47:54.834Z,24.80
2023-05-17T10:50:23.902Z,24.80
2023-05-17T10:52:52.363Z,24.70
2023-05-17T10:55:21.566Z,24.70
2023-05-17T10:58:17.504Z,24.80
2023-05-17T11:00:47.539Z,25.10
2023-05-17T11:03:30.892Z,25.00
2023-05-17T11:06:23.488Z,25.10
2023-05-17T11:09:08.254Z,24.90
2023-05-17T11:11:35.430Z,24.80
2023-05-17T11:14:04.915Z,25.00
2023-05-17T11:16:37.190Z,25.20
2023-05-17T11:19:09.898Z,25.20
2023-05-17T11:21:46.858Z,25.40
2023-05-17T11:24:22.083Z,25.30
2023-05-17T11:26:50.943Z,25.20
2023-05-17T11:29:18.265Z,25.80
2023-05-17T11:31:51.661Z,25.80
2023-05-17T11:34:19.085Z,26.20
2023-05-17T11:36:54.896Z,26.20
2023-05-17T11:39:24.145Z,26.20
2023-05-17T11:41:57.925Z,26.10
2023-05-17T11:44:35.196Z,26.00
2023-05-17T11:47:04.073Z,25.80
2023-05-17T11:49:36.218Z,25.80
2023-05-17T11:52:06.852Z,25.10
2023-05-17T11:54:34.720Z,24.20
2023-05-17T11:57:03.922Z,23.80
2023-05-17T11:59:38.843Z,24.40
2023-05-17T12:02:06.142Z,24.50
2023-05-17T12:04:37.916Z,24.50
2023-05-17T12:07:09.168Z,25.00
2023-05-17T12:09:39.322Z,25.30
2023-05-17T12:12:06.739Z,24.90
2023-05-17T12:14:34.034Z,25.10
2023-05-17T12:17:05.962Z,25.20
2023-05-17T12:19:33.273Z,25.10
2023-05-17T12:22:12.862Z,24.60
2023-05-17T12:24:41.967Z,24.40
2023-05-17T12:27:10.006Z,24.30
2023-05-17T12:29:37.590Z,24.50
2023-05-17T12:32:08.744Z,24.90
2023-05-17T12:34:36.107Z,25.10
2023-05-17T12:37:03.337Z,24.90
2023-05-17T12:39:31.612Z,25.00
2023-05-17T12:41:59.153Z,25.10
2023-05-17T12:44:26.522Z,25.00
2023-05-17T12:46:56.322Z,25.80
2023-05-17T12:49:23.787Z,25.70
2023-05-17T12:51:52.076Z,25.30
2023-05-17T12:54:26.644Z,24.80
2023-05-17T12:56:53.827Z,24.70
2023-05-17T12:59:21.818Z,24.00
2023-05-17T13:01:52.879Z,23.70
2023-05-17T13:04:21.538Z,24.20
2023-05-17T13:07:00.449Z,24.70
2023-05-17T13:09:31.288Z,25.10
2023-05-17T13:12:07.265Z,25.60
2023-05-17T13:14:39.775Z,26.00
2023-05-17T13:17:13.421Z,26.50
2023-05-17T13:19:40.774Z,26.90
2023-05-17T13:22:08.347Z,26.50
2023-05-17T13:24:36.817Z,26.80
2023-05-17T13:27:04.379Z,26.60
2023-05-17T13:29:39.477Z,26.70
2023-05-17T13:32:08.947Z,26.10
2023-05-17T13:34:36.551Z,25.50
2023-05-17T13:37:04.562Z,25.40
2023-05-17T13:39:31.863Z,25.30
2023-05-17T13:41:59.245Z,25.70
2023-05-17T13:44:26.370Z,26.00
2023-05-17T13:46:53.469Z,25.70
2023-05-17T13:49:20.903Z,25.50
2023-05-17T13:51:47.996Z,25.30
2023-05-17T13:54:15.134Z,25.40
2023-05-17T13:56:42.342Z,25.60
2023-05-17T13:59:09.403Z,25.10
2023-05-17T14:01:36.265Z,25.40
2023-05-17T14:04:04.213Z,25.50
2023-05-17T14:06:31.720Z,25.30
2023-05-17T14:09:00.844Z,25.20
2023-05-17T14:11:28.101Z,25.60
2023-05-17T14:13:55.743Z,25.70
2023-05-17T14:16:23.012Z,25.90
2023-05-17T14:18:50.552Z,26.00
2023-05-17T14:21:18.149Z,25.40
2023-05-17T14:23:45.188Z,25.10
2023-05-17T14:26:12.135Z,25.10
2023-05-17T14:28:39.390Z,24.60
2023-05-17T14:31:08.433Z,24.40
2023-05-17T14:33:36.221Z,24.20
2023-05-17T14:36:06.761Z,24.10
2023-05-17T14:38:33.844Z,24.50
2023-05-17T14:41:02.101Z,24.70
2023-05-17T14:43:29.408Z,24.50
2023-05-17T14:45:56.451Z,24.30
2023-05-17T14:48:23.629Z,24.10
2023-05-17T14:50:51.569Z,23.20
2023-05-17T14:53:18.620Z,23.30
2023-05-17T14:55:45.648Z,23.60
2023-05-17T14:58:13.775Z,23.90
2023-05-17T15:00:42.121Z,23.90
2023-05-17T15:03:09.583Z,23.40
2023-05-17T15:05:38.866Z,23.80
2023-05-17T15:08:06.691Z,24.30
2023-05-17T15:10:34.526Z,23.60
2023-05-17T15:13:02.455Z,23.30
2023-05-17T15:15:30.146Z,23.70
2023-05-17T15:17:58.132Z,23.80
2023-05-17T15:20:25.382Z,23.40
2023-05-17T15:22:52.417Z,23.60
2023-05-17T15:25:19.398Z,23.60
2023-05-17T15:27:46.760Z,23.60
2023-05-17T15:30:14.451Z,23.10
2023-05-17T15:32:41.970Z,22.70
2023-05-17T15:35:10.395Z,22.50
2023-05-17T15:37:37.619Z,22.20
2023-05-17T15:40:11.315Z,21.70
2023-05-17T15:42:38.603Z,21.70
2023-05-17T15:45:06.781Z,22.00
2023-05-17T15:47:43.280Z,21.90
2023-05-17T15:50:11.294Z,21.90
2023-05-17T15:52:38.922Z,21.80
2023-05-17T15:55:06.868Z,21.70
2023-05-17T15:57:33.814Z,21.80
2023-05-17T16:00:00.861Z,21.70
2023-05-17T16:02:27.843Z,22.30
2023-05-17T16:04:55.352Z,22.50
2023-05-17T16:07:22.824Z,22.50
2023-05-17T16:09:49.785Z,22.80
2023-05-17T16:12:17.221Z,22.80
2023-05-17T16:14:45.140Z,22.80
2023-05-17T16:17:12.224Z,22.90
2023-05-17T16:19:39.489Z,22.50
2023-05-17T16:22:08.137Z,22.30
2023-05-17T16:24:35.451Z,22.50
2023-05-17T16:27:04.709Z,22.80
2023-05-17T16:29:45.874Z,22.70
2023-05-17T16:32:27.250Z,22.80
2023-05-17T16:35:05.461Z,22.50
2023-05-17T16:38:43.847Z,22.30
2023-05-17T16:41:32.576Z,22.30
2023-05-17T16:44:11.471Z,22.10
2023-05-17T16:46:45.876Z,21.90
2023-05-17T16:49:24.818Z,21.90
2023-05-17T16:52:00.820Z,22.10
2023-05-17T16:54:37.950Z,22.00
2023-05-17T16:57:39.883Z,22.00
2023-05-17T17:00:31.513Z,21.90
2023-05-17T17:03:12.713Z,21.50
2023-05-17T17:09:05.823Z,20.60
2023-05-17T17:22:55.420Z,19.80
2023-05-17T17:25:45.875Z,19.70
2023-05-17T17:28:20.313Z,19.50
2023-05-17T17:30:47.975Z,19.00
2023-05-17T17:59:54.616Z,18.20
2023-05-17T18:02:30.011Z,18.30
2023-05-17T18:05:03.566Z,18.20
2023-05-17T18:07:34.401Z,18.30
2023-05-17T18:10:02.248Z,18.10
2023-05-17T18:12:29.894Z,18.10
2023-05-17T18:15:02.159Z,18.10
2023-05-17T18:17:33.104Z,18.00
2023-05-17T18:20:10.081Z,17.90
2023-05-17T18:22:48.018Z,17.80
2023-05-17T18:25:15.397Z,17.70
2023-05-17T18:27:42.715Z,17.70
2023-05-17T18:30:10.604Z,17.70
2023-05-17T18:32:37.987Z,17.70
2023-05-17T18:35:05.766Z,17.70
2023-05-17T18:37:33.217Z,17.50
2023-05-17T18:40:02.395Z,17.30
2023-05-17T18:42:29.543Z,17.30
2023-05-17T18:44:56.663Z,17.30
2023-05-17T18:47:23.728Z,17.30
2023-05-17T18:49:51.938Z,17.20
2023-05-17T18:52:19.214Z,17.10
2023-05-17T18:54:48.433Z,17.20
2023-05-17T18:57:15.438Z,17.20
2023-05-17T18:59:45.134Z,17.00
2023-05-17T19:02:12.224Z,16.90
2023-05-17T19:04:39.521Z,16.90
2023-05-17T19:07:06.928Z,16.70
2023-05-17T19:09:34.695Z,16.70
2023-05-17T19:12:01.716Z,16.60
2023-05-17T19:14:28.790Z,16.60
2023-05-17T19:16:57.132Z,16.40
2023-05-17T19:19:25.182Z,16.30
2023-05-17T19:21:52.481Z,16.40
2023-05-17T19:24:19.673Z,16.40
2023-05-17T19:26:46.741Z,16.30
2023-05-17T19:29:13.710Z,16.30
2023-05-17T19:31:40.832Z,16.30
2023-05-17T19:34:08.404Z,16.30
2023-05-17T19:36:35.588Z,16.20
2023-05-17T19:39:03.606Z,16.00
2023-05-17T19:41:31.368Z,16.00
2023-05-17T19:43:58.420Z,16.00
2023-05-17T19:46:26.359Z,15.90
2023-05-17T19:48:53.825Z,15.90
2023-05-17T19:51:21.142Z,15.90
2023-05-17T19:53:53.109Z,15.80
2023-05-17T19:56:23.069Z,15.70
2023-05-17T19:58:52.318Z,15.80
2023-05-17T20:01:19.540Z,15.70
2023-05-17T20:03:46.730Z,15.70
2023-05-17T20:06:14.898Z,15.60
2023-05-17T20:08:43.046Z,15.70
2023-05-17T20:11:10.995Z,15.50
2023-05-17T20:13:40.641Z,15.30
2023-05-17T20:16:15.358Z,15.20
2023-05-17T20:18:43.821Z,15.40
2023-05-17T20:21:15.957Z,15.30
2023-05-17T20:23:43.063Z,15.40
2023-05-17T20:26:16.718Z,15.30
2023-05-17T20:28:44.762Z,15.20
2023-05-17T20:31:12.204Z,15.20
2023-05-17T20:33:39.986Z,15.20
2023-05-17T20:36:10.948Z,15.10
2023-05-17T20:38:38.357Z,15.00
2023-05-17T20:41:08.384Z,15.10
2023-05-17T20:43:36.890Z,15.00
2023-05-17T20:46:10.627Z,15.00
2023-05-17T20:48:39.800Z,14.90
2023-05-17T20:51:09.660Z,14.90
2023-05-17T20:53:37.102Z,15.00
2023-05-17T20:56:04.210Z,15.00
2023-05-17T20:58:33.514Z,14.80
2023-05-17T21:01:03.339Z,14.70
2023-05-17T21:03:34.212Z,14.80
2023-05-17T21:06:02.357Z,14.80
2023-05-17T21:08:29.563Z,14.50
2023-05-17T21:10:57.491Z,14.30
2023-05-17T21:13:25.899Z,14.30
2023-05-17T21:15:54.463Z,14.20
2023-05-17T21:18:22.421Z,14.10
2023-05-17T21:20:51.086Z,14.00
2023-05-17T21:23:18.803Z,13.90
2023-05-17T21:25:45.858Z,13.90
2023-05-17T21:28:12.940Z,13.80
2023-05-17T21:30:39.862Z,13.90
2023-05-17T21:33:06.841Z,13.90
2023-05-17T21:35:33.771Z,14.00
2023-05-17T21:38:00.843Z,13.80
2023-05-17T21:40:28.324Z,13.60
2023-05-17T21:42:56.010Z,13.50
2023-05-17T21:45:23.152Z,13.50
2023-05-17T21:47:50.331Z,13.40
2023-05-17T21:50:17.617Z,13.40
2023-05-17T21:52:44.691Z,13.20
2023-05-17T21:55:12.666Z,13.20
2023-05-17T21:57:39.713Z,13.20
2023-05-17T22:00:12.906Z,13.40
2023-05-17T22:02:42.029Z,13.30
2023-05-17T22:05:10.113Z,13.50
2023-05-17T22:07:37.329Z,13.30
2023-05-17T22:10:09.526Z,13.40
2023-05-17T22:12:38.422Z,13.60
2023-05-17T22:15:06.250Z,13.50
2023-05-17T22:17:43.024Z,13.50
2023-05-17T22:20:19.709Z,13.50
2023-05-17T22:22:46.880Z,13.50
2023-05-17T22:25:15.076Z,13.40
2023-05-17T22:27:43.080Z,13.50
2023-05-17T22:30:10.691Z,13.50
2023-05-17T22:32:37.720Z,13.50
2023-05-17T22:35:05.011Z,13.50
2023-05-17T22:37:33.716Z,13.40
2023-05-17T22:40:00.758Z,13.40
2023-05-17T22:42:29.964Z,13.40
2023-05-17T22:44:56.840Z,13.20
2023-05-17T22:47:26.718Z,13.20
2023-05-17T22:49:54.061Z,13.10
2023-05-17T22:52:21.865Z,13.00
2023-05-17T22:54:49.089Z,13.00
2023-05-17T22:57:15.966Z,13.00
2023-05-17T22:59:44.236Z,13.10
2023-05-17T23:02:14.393Z,12.90
2023-05-17T23:04:50.081Z,13.00
2023-05-17T23:07:17.227Z,12.90
2023-05-17T23:09:45.397Z,12.90
2023-05-17T23:12:14.221Z,12.90
2023-05-17T23:14:41.367Z,12.80
2023-05-17T23:17:08.653Z,12.70
2023-05-17T23:19:36.387Z,12.80
2023-05-17T23:22:04.400Z,12.80
2023-05-17T23:24:31.591Z,12.60
2023-05-17T23:26:59.059Z,12.60
2023-05-17T23:29:26.475Z,12.60
2023-05-17T23:31:53.896Z,12.70
2023-05-17T23:34:22.191Z,12.70
2023-05-17T23:36:49.444Z,12.70
2023-05-17T23:39:16.524Z,12.70
2023-05-17T23:41:43.651Z,12.60
2023-05-17T23:44:10.901Z,12.60
2023-05-17T23:46:38.177Z,12.60
2023-05-17T23:49:05.932Z,12.70
2023-05-17T23:51:34.981Z,12.50
2023-05-17T23:54:02.140Z,12.50
2023-05-17T23:56:29.318Z,12.40
2023-05-17T23:58:56.965Z,12.50
